Terminal Aerodrome Forecast
Issued by NWS Atlanta, GA

Home | Current Version | Previous Version | Text Only | Print | Product List | Glossary On
Versions: 1 2 3 4 5 6 7 8 9 10 11 12 13 14 15
488
FTUS42 KFFC 150520
TAFCSG
TAF
KCSG 150520Z 1506/1606 VRB03KT P6SM SCT150 BKN250
     FM151600 32010KT P6SM SCT150 BKN180
     FM160000 34006KT P6SM SCT150 BKN200=

USA.gov is the U.S. government's official web portal to all federal, state and local government web resources and services.